Time;durP1;ratioP1;P1;durP2;ratioP2;P2;SDS_P1;SDS_P2;PMS_P1;PMS_P2;Temp;Humidity;BMP_temperature;BMP_pressure;BME280_temperature;BME280_humidity;BME280_pressure;Samples;Min_cycle;Max_cycle;Signal;HPM_P1;HPM_P2
2022/10/21 00:00:35;;;;;;;13.45;8.13;;;;;;;;;;10254790;28;20477;-79
2022/10/21 00:05:36;;;;;;;12.00;7.40;;;;;;;;;;10259148;28;20037;-75
2022/10/21 00:10:36;;;;;;;17.75;8.95;;;;;;;;;;10257409;28;20028;-73
2022/10/21 00:15:36;;;;;;;15.23;9.18;;;;;;;;;;10280837;28;20042;-79
2022/10/21 00:20:39;;;;;;;20.27;9.27;;;;;;;;;;10256499;28;20148;-77
2022/10/21 00:25:39;;;;;;;14.13;9.27;;;;;;;;;;10277265;28;20029;-77
2022/10/21 00:30:43;;;;;;;17.30;8.30;;;;;;;;;;10295151;28;20030;-78
2022/10/21 00:35:49;;;;;;;18.27;9.07;;;;;;;;;;10281096;28;20022;-74
2022/10/21 00:40:49;;;;;;;15.80;8.25;;;;;;;;;;10250327;28;20031;-76
2022/10/21 00:45:53;;;;;;;20.00;8.15;;;;;;;;;;10270124;28;20569;-76
2022/10/21 00:50:56;;;;;;;11.48;7.50;;;;;;;;;;10268411;28;20102;-79
2022/10/21 00:55:58;;;;;;;14.15;8.23;;;;;;;;;;10254357;28;20069;-75
2022/10/21 01:01:00;;;;;;;15.43;8.57;;;;;;;;;;10239751;28;20015;-76
2022/10/21 01:06:02;;;;;;;10.93;7.57;;;;;;;;;;10255383;28;20114;-78
2022/10/21 01:11:03;;;;;;;14.23;8.43;;;;;;;;;;10268161;28;20022;-74
2022/10/21 01:16:10;;;;;;;14.15;8.57;;;;;;;;;;10264506;28;20073;-79
2022/10/21 01:21:30;;;;;;;16.67;8.93;;;;;;;;;;10254221;28;20434;-76
2022/10/21 01:26:36;;;;;;;13.48;9.25;;;;;;;;;;10237961;29;20023;-79
2022/10/21 01:31:45;;;;;;;15.50;8.68;;;;;;;;;;10270359;28;20027;-73
2022/10/21 01:37:00;;;;;;;16.48;9.18;;;;;;;;;;10293293;28;20046;-74
2022/10/21 01:42:09;;;;;;;14.00;8.75;;;;;;;;;;10281123;28;20050;-77
2022/10/21 01:47:10;;;;;;;17.05;10.20;;;;;;;;;;10283718;28;20417;-81
2022/10/21 01:52:11;;;;;;;20.70;10.48;;;;;;;;;;10270390;28;20027;-79
2022/10/21 01:57:13;;;;;;;21.02;10.52;;;;;;;;;;10258066;28;20034;-80
2022/10/21 02:02:14;;;;;;;15.80;10.07;;;;;;;;;;10259837;28;20379;-80
2022/10/21 02:07:15;;;;;;;20.13;10.73;;;;;;;;;;10260101;28;20019;-75
2022/10/21 02:12:16;;;;;;;17.23;10.95;;;;;;;;;;10254024;28;20031;-76
2022/10/21 02:17:18;;;;;;;18.88;10.30;;;;;;;;;;10286070;28;20066;-78
2022/10/21 02:22:20;;;;;;;21.92;10.25;;;;;;;;;;10302516;28;20031;-77
2022/10/21 02:27:21;;;;;;;19.52;11.15;;;;;;;;;;10261020;28;20038;-77
2022/10/21 02:32:25;;;;;;;20.88;10.23;;;;;;;;;;10244559;28;20027;-78
2022/10/21 02:37:37;;;;;;;17.45;11.20;;;;;;;;;;10287330;28;20066;-79
2022/10/21 02:42:42;;;;;;;22.63;12.65;;;;;;;;;;10244661;28;20027;-80
2022/10/21 02:47:42;;;;;;;19.67;12.75;;;;;;;;;;10258770;28;20067;-80
2022/10/21 02:52:42;;;;;;;20.70;12.35;;;;;;;;;;10259218;28;20569;-80
2022/10/21 02:57:43;;;;;;;24.95;12.00;;;;;;;;;;10242277;28;20019;-75
2022/10/21 03:03:03;;;;;;;20.58;12.45;;;;;;;;;;10276210;28;20493;-82
2022/10/21 03:08:03;;;;;;;21.95;11.20;;;;;;;;;;10286418;28;20026;-77
2022/10/21 03:13:04;;;;;;;22.33;10.90;;;;;;;;;;10257620;28;20026;-74
2022/10/21 03:18:04;;;;;;;19.20;10.80;;;;;;;;;;10243179;28;20190;-80
2022/10/21 03:23:04;;;;;;;31.20;11.82;;;;;;;;;;10257173;28;20023;-77
2022/10/21 03:28:04;;;;;;;21.02;12.82;;;;;;;;;;10257097;28;20019;-77
2022/10/21 03:33:05;;;;;;;23.83;12.52;;;;;;;;;;10265539;28;20077;-80
2022/10/21 03:38:05;;;;;;;24.45;13.38;;;;;;;;;;10279781;28;20062;-75
2022/10/21 03:43:05;;;;;;;22.58;11.75;;;;;;;;;;10275157;28;20494;-78
2022/10/21 03:48:05;;;;;;;26.43;13.43;;;;;;;;;;10252131;28;20497;-78
2022/10/21 03:53:06;;;;;;;22.17;13.82;;;;;;;;;;10280466;28;20034;-74
2022/10/21 03:58:06;;;;;;;21.27;12.98;;;;;;;;;;10280347;28;20038;-79
2022/10/21 04:03:06;;;;;;;27.43;14.37;;;;;;;;;;10264186;28;20125;-77
2022/10/21 04:08:07;;;;;;;22.10;12.25;;;;;;;;;;10241073;28;20042;-79
2022/10/21 04:13:08;;;;;;;33.42;15.32;;;;;;;;;;10240984;28;20034;-80
2022/10/21 04:18:08;;;;;;;25.87;13.07;;;;;;;;;;10239331;28;20034;-76
2022/10/21 04:23:08;;;;;;;24.35;13.75;;;;;;;;;;10269093;28;20030;-81
2022/10/21 04:28:10;;;;;;;34.72;14.48;;;;;;;;;;10266652;28;20049;-76
2022/10/21 04:33:10;;;;;;;29.80;15.02;;;;;;;;;;10290203;28;20019;-72
2022/10/21 04:38:10;;;;;;;23.15;13.60;;;;;;;;;;10271127;28;20138;-72
2022/10/21 04:43:10;;;;;;;33.90;16.20;;;;;;;;;;10265015;28;20035;-73
2022/10/21 04:48:12;;;;;;;31.27;15.20;;;;;;;;;;10243676;28;20158;-77
2022/10/21 04:53:12;;;;;;;28.23;15.80;;;;;;;;;;10266625;28;20054;-78
2022/10/21 04:58:12;;;;;;;34.50;18.60;;;;;;;;;;10285007;28;20114;-76
2022/10/21 05:03:13;;;;;;;45.70;16.20;;;;;;;;;;10269020;28;20023;-78
2022/10/21 05:08:13;;;;;;;26.40;15.73;;;;;;;;;;10265369;28;20019;-77
2022/10/21 05:13:14;;;;;;;44.50;16.65;;;;;;;;;;10273027;28;20109;-82
2022/10/21 05:18:14;;;;;;;35.42;18.77;;;;;;;;;;10270961;28;20035;-76
2022/10/21 05:23:15;;;;;;;37.00;16.33;;;;;;;;;;10279566;28;20021;-79
2022/10/21 05:28:16;;;;;;;37.67;18.15;;;;;;;;;;10294755;28;20867;-78
2022/10/21 05:33:16;;;;;;;32.30;16.15;;;;;;;;;;10297619;28;20023;-77
2022/10/21 05:38:16;;;;;;;37.55;18.23;;;;;;;;;;10297780;28;20039;-78
2022/10/21 05:43:17;;;;;;;44.60;20.45;;;;;;;;;;10254078;28;20023;-78
2022/10/21 05:48:17;;;;;;;54.65;18.75;;;;;;;;;;10254577;28;20027;-77
2022/10/21 05:53:17;;;;;;;36.57;18.03;;;;;;;;;;10269172;28;20139;-78
2022/10/21 05:58:18;;;;;;;33.88;15.27;;;;;;;;;;10244615;28;20024;-79
2022/10/21 06:03:18;;;;;;;33.60;16.30;;;;;;;;;;10279916;28;20034;-77
2022/10/21 06:08:18;;;;;;;35.60;16.43;;;;;;;;;;10264042;28;20481;-78
2022/10/21 06:13:20;;;;;;;35.53;17.50;;;;;;;;;;10280058;28;20490;-76
2022/10/21 06:18:20;;;;;;;34.90;15.63;;;;;;;;;;10285450;28;20042;-77
2022/10/21 06:23:20;;;;;;;24.80;12.90;;;;;;;;;;10260407;28;20658;-78
2022/10/21 06:28:21;;;;;;;35.45;14.30;;;;;;;;;;10257811;28;20122;-79
2022/10/21 06:33:21;;;;;;;36.88;13.30;;;;;;;;;;10291034;28;20037;-77
2022/10/21 06:38:22;;;;;;;19.02;10.80;;;;;;;;;;10293774;28;20129;-78
2022/10/21 06:43:22;;;;;;;22.60;10.15;;;;;;;;;;10263314;28;20482;-77
2022/10/21 06:48:22;;;;;;;19.42;10.27;;;;;;;;;;10274099;28;20066;-77
2022/10/21 06:53:23;;;;;;;18.73;9.30;;;;;;;;;;10261041;28;20031;-77
2022/10/21 06:58:23;;;;;;;21.52;9.77;;;;;;;;;;10255432;28;20553;-73
2022/10/21 07:03:24;;;;;;;23.27;10.53;;;;;;;;;;10242117;28;20121;-74
2022/10/21 07:08:25;;;;;;;27.40;10.13;;;;;;;;;;10254923;28;20118;-75
2022/10/21 07:13:25;;;;;;;17.25;7.95;;;;;;;;;;10237874;28;20031;-72
2022/10/21 07:18:26;;;;;;;22.73;10.55;;;;;;;;;;10255984;28;20027;-76
2022/10/21 07:23:26;;;;;;;27.53;10.97;;;;;;;;;;10253347;28;20208;-74
2022/10/21 07:28:26;;;;;;;21.40;9.70;;;;;;;;;;10238568;28;20026;-76
2022/10/21 07:33:27;;;;;;;23.80;10.38;;;;;;;;;;10256452;28;20414;-74
2022/10/21 07:38:27;;;;;;;22.15;9.45;;;;;;;;;;10237957;28;20529;-76
2022/10/21 07:43:27;;;;;;;21.30;10.85;;;;;;;;;;10236945;29;20055;-71
2022/10/21 07:48:27;;;;;;;18.58;10.00;;;;;;;;;;10273104;28;20019;-73
2022/10/21 07:53:28;;;;;;;27.38;11.07;;;;;;;;;;10267153;28;20038;-73
2022/10/21 07:58:28;;;;;;;25.92;13.05;;;;;;;;;;10238553;28;20041;-74
2022/10/21 08:03:29;;;;;;;20.50;11.25;;;;;;;;;;10253308;28;20497;-76
2022/10/21 08:08:30;;;;;;;19.33;11.77;;;;;;;;;;10253743;28;20032;-72
2022/10/21 08:13:31;;;;;;;21.25;10.88;;;;;;;;;;10238606;28;20564;-77
2022/10/21 08:18:32;;;;;;;19.98;11.10;;;;;;;;;;10237558;28;20023;-74
2022/10/21 08:23:32;;;;;;;23.25;12.02;;;;;;;;;;10253370;28;20038;-77
2022/10/21 08:28:34;;;;;;;26.92;12.23;;;;;;;;;;10252419;28;20023;-76
2022/10/21 08:33:35;;;;;;;22.23;10.90;;;;;;;;;;10265395;28;20030;-79
2022/10/21 08:38:35;;;;;;;20.25;11.15;;;;;;;;;;10263571;28;20061;-76
2022/10/21 08:43:36;;;;;;;23.85;11.77;;;;;;;;;;10260719;28;20030;-73
2022/10/21 08:49:00;;;;;;;26.13;11.70;;;;;;;;;;10281677;28;20097;-78
2022/10/21 08:54:03;;;;;;;23.85;11.30;;;;;;;;;;10270900;28;20485;-81
2022/10/21 08:59:11;;;;;;;22.80;11.75;;;;;;;;;;10260922;28;20177;-79
2022/10/21 09:04:17;;;;;;;21.52;10.98;;;;;;;;;;10261529;28;20026;-79
2022/10/21 09:09:23;;;;;;;22.48;10.32;;;;;;;;;;10260470;28;20019;-78
2022/10/21 09:14:24;;;;;;;21.35;10.48;;;;;;;;;;10271500;28;20121;-74
2022/10/21 09:19:33;;;;;;;24.73;11.20;;;;;;;;;;10266720;28;20027;-74
2022/10/21 09:24:35;;;;;;;20.83;11.45;;;;;;;;;;10257265;28;20516;-74
2022/10/21 09:29:36;;;;;;;18.25;9.25;;;;;;;;;;10259769;28;20027;-77
2022/10/21 09:34:45;;;;;;;20.58;9.82;;;;;;;;;;10243111;28;20027;-78
2022/10/21 09:39:48;;;;;;;13.38;8.15;;;;;;;;;;10243295;28;20047;-78
2022/10/21 09:44:48;;;;;;;15.18;8.02;;;;;;;;;;10251064;29;20082;-75
2022/10/21 09:49:54;;;;;;;16.20;8.20;;;;;;;;;;10259107;28;20114;-73
2022/10/21 09:54:54;;;;;;;20.58;8.70;;;;;;;;;;10259436;28;20038;-74
2022/10/21 09:59:57;;;;;;;26.70;19.55;;;;;;;;;;10288766;28;20533;-77
2022/10/21 10:04:58;;;;;;;11.45;6.90;;;;;;;;;;10246307;28;20041;-77
2022/10/21 10:09:59;;;;;;;14.15;7.13;;;;;;;;;;10260291;28;20050;-75
2022/10/21 10:15:20;;;;;;;12.23;5.93;;;;;;;;;;10257781;28;20034;-77
2022/10/21 10:20:21;;;;;;;11.27;6.80;;;;;;;;;;10289056;28;20029;-78
2022/10/21 10:25:23;;;;;;;10.20;6.50;;;;;;;;;;10271252;28;20023;-77
2022/10/21 10:30:23;;;;;;;14.63;6.85;;;;;;;;;;10275729;28;20026;-79
2022/10/21 10:35:29;;;;;;;13.65;6.70;;;;;;;;;;10301861;28;20042;-78
2022/10/21 10:40:40;;;;;;;12.77;5.88;;;;;;;;;;10305294;28;20046;-74
2022/10/21 10:45:49;;;;;;;10.15;6.72;;;;;;;;;;10313167;28;20049;-80
2022/10/21 10:50:50;;;;;;;12.95;7.03;;;;;;;;;;10299511;28;20488;-77
2022/10/21 10:55:54;;;;;;;11.10;6.18;;;;;;;;;;10286817;28;20034;-73
2022/10/21 11:00:56;;;;;;;15.55;7.00;;;;;;;;;;10287953;28;20033;-73
2022/10/21 11:06:16;;;;;;;10.95;6.40;;;;;;;;;;10291628;28;20033;-79
2022/10/21 11:11:21;;;;;;;11.70;6.88;;;;;;;;;;10297853;28;20043;-77
2022/10/21 11:16:39;;;;;;;12.70;7.18;;;;;;;;;;10299928;28;20019;-80
2022/10/21 11:21:44;;;;;;;16.10;6.90;;;;;;;;;;10307754;28;20022;-73
2022/10/21 11:27:03;;;;;;;11.10;6.43;;;;;;;;;;10305041;28;20034;-75
2022/10/21 11:32:08;;;;;;;16.10;8.48;;;;;;;;;;10289421;28;20592;-74
2022/10/21 11:37:18;;;;;;;14.27;8.45;;;;;;;;;;10292669;28;20134;-74
2022/10/21 11:42:49;;;;;;;19.25;10.65;;;;;;;;;;10285058;28;20103;-73
2022/10/21 11:48:01;;;;;;;12.38;7.75;;;;;;;;;;10263265;28;20101;-78
2022/10/21 11:53:11;;;;;;;19.20;9.95;;;;;;;;;;10284948;28;20054;-78
2022/10/21 11:58:14;;;;;;;20.00;10.35;;;;;;;;;;10302530;28;20026;-75
2022/10/21 12:03:14;;;;;;;18.85;10.43;;;;;;;;;;10296950;28;20022;-74
2022/10/21 12:08:20;;;;;;;16.40;9.20;;;;;;;;;;10303698;28;20716;-75
2022/10/21 12:13:38;;;;;;;14.38;9.38;;;;;;;;;;10281724;28;20121;-78
2022/10/21 12:19:00;;;;;;;18.05;9.82;;;;;;;;;;10277952;28;20034;-77
2022/10/21 12:24:10;;;;;;;20.58;10.52;;;;;;;;;;10282769;28;20091;-73
2022/10/21 12:29:10;;;;;;;19.45;11.27;;;;;;;;;;10282436;28;20027;-73
2022/10/21 12:34:11;;;;;;;21.25;10.43;;;;;;;;;;10296352;28;20108;-75
2022/10/21 12:39:16;;;;;;;22.98;11.30;;;;;;;;;;10304442;28;20665;-78
2022/10/21 12:44:21;;;;;;;18.15;9.52;;;;;;;;;;10309994;28;20033;-74
2022/10/21 12:49:32;;;;;;;17.75;9.95;;;;;;;;;;10301559;28;20062;-74
2022/10/21 12:54:39;;;;;;;16.85;9.23;;;;;;;;;;10298972;28;20110;-79
2022/10/21 12:59:40;;;;;;;19.60;11.77;;;;;;;;;;10308814;28;20053;-78
2022/10/21 13:04:45;;;;;;;16.15;9.02;;;;;;;;;;10305911;28;20154;-77
2022/10/21 13:09:52;;;;;;;15.75;9.15;;;;;;;;;;10303588;28;20030;-78
2022/10/21 13:14:56;;;;;;;25.67;9.18;;;;;;;;;;10300902;28;20050;-75
2022/10/21 13:19:59;;;;;;;13.52;8.73;;;;;;;;;;10311368;28;20022;-78
2022/10/21 13:25:14;;;;;;;18.40;9.48;;;;;;;;;;10298045;28;20420;-75
2022/10/21 13:30:28;;;;;;;14.90;8.35;;;;;;;;;;10302562;28;20038;-74
2022/10/21 13:35:30;;;;;;;22.25;9.50;;;;;;;;;;10310703;28;20442;-75
2022/10/21 13:40:35;;;;;;;39.97;10.65;;;;;;;;;;10318862;28;20053;-74
2022/10/21 13:45:38;;;;;;;20.88;9.20;;;;;;;;;;10304084;28;20034;-74
2022/10/21 13:50:41;;;;;;;22.40;9.60;;;;;;;;;;10307894;28;20575;-78
2022/10/21 13:55:41;;;;;;;16.05;8.70;;;;;;;;;;10310530;28;20057;-75
2022/10/21 14:00:42;;;;;;;18.83;8.60;;;;;;;;;;10314003;28;20027;-73
2022/10/21 14:05:48;;;;;;;16.50;9.02;;;;;;;;;;10302538;28;20265;-74
2022/10/21 14:10:48;;;;;;;13.90;8.88;;;;;;;;;;10303364;28;20129;-77
2022/10/21 14:15:50;;;;;;;16.55;8.90;;;;;;;;;;10305143;28;20045;-82
2022/10/21 14:20:52;;;;;;;16.88;8.55;;;;;;;;;;10311049;28;20137;-77
2022/10/21 14:25:54;;;;;;;16.30;8.15;;;;;;;;;;10306472;28;20707;-76
2022/10/21 14:30:54;;;;;;;18.23;8.63;;;;;;;;;;10312630;28;20038;-79
2022/10/21 14:36:11;;;;;;;17.00;8.47;;;;;;;;;;10324665;28;20088;-78
2022/10/21 14:41:22;;;;;;;18.13;8.77;;;;;;;;;;10306092;28;20082;-77
2022/10/21 14:46:23;;;;;;;18.52;8.93;;;;;;;;;;10304818;28;20030;-79
2022/10/21 14:51:24;;;;;;;16.27;9.50;;;;;;;;;;10306449;28;20049;-79
2022/10/21 14:56:29;;;;;;;15.77;9.27;;;;;;;;;;10296987;28;20331;-73
2022/10/21 15:01:29;;;;;;;32.92;10.00;;;;;;;;;;10296053;28;20050;-76
2022/10/21 15:06:33;;;;;;;16.95;10.65;;;;;;;;;;10306226;28;20038;-76
2022/10/21 15:11:35;;;;;;;27.85;9.23;;;;;;;;;;10298314;28;20033;-76
2022/10/21 15:16:36;;;;;;;17.80;9.48;;;;;;;;;;10302533;28;20034;-78
2022/10/21 15:21:38;;;;;;;22.55;11.52;;;;;;;;;;10306260;28;20515;-77
2022/10/21 15:26:39;;;;;;;27.30;11.23;;;;;;;;;;10297210;28;20503;-80
2022/10/21 15:31:40;;;;;;;22.75;10.20;;;;;;;;;;10292130;28;20030;-79
2022/10/21 15:36:41;;;;;;;26.40;11.93;;;;;;;;;;10293982;28;20058;-75
2022/10/21 15:41:41;;;;;;;34.25;11.88;;;;;;;;;;10297033;28;20033;-75
2022/10/21 15:46:45;;;;;;;23.70;12.65;;;;;;;;;;10294730;28;20031;-75
2022/10/21 15:51:45;;;;;;;41.60;14.40;;;;;;;;;;10289685;28;20061;-77
2022/10/21 15:56:47;;;;;;;30.50;13.57;;;;;;;;;;10303044;28;20073;-78
2022/10/21 16:01:47;;;;;;;37.38;13.50;;;;;;;;;;10313831;28;20038;-75
2022/10/21 16:06:48;;;;;;;25.20;12.18;;;;;;;;;;10292777;28;20030;-76
2022/10/21 16:11:49;;;;;;;26.23;13.52;;;;;;;;;;10289153;28;20030;-73
2022/10/21 16:16:53;;;;;;;28.65;13.05;;;;;;;;;;10307968;28;20026;-72
2022/10/21 16:21:53;;;;;;;31.92;16.13;;;;;;;;;;10291601;28;20026;-76
2022/10/21 16:26:54;;;;;;;28.70;12.55;;;;;;;;;;10312305;28;20044;-77
2022/10/21 16:31:56;;;;;;;16.95;10.00;;;;;;;;;;10304332;28;20044;-73
2022/10/21 16:36:56;;;;;;;19.92;11.15;;;;;;;;;;10296405;28;20089;-76
2022/10/21 16:41:56;;;;;;;17.98;10.75;;;;;;;;;;10304116;28;20117;-77
2022/10/21 16:46:56;;;;;;;18.52;9.00;;;;;;;;;;10305099;28;20022;-75
2022/10/21 16:51:59;;;;;;;17.97;8.47;;;;;;;;;;10302251;28;20420;-77
2022/10/21 16:56:59;;;;;;;16.80;9.35;;;;;;;;;;10314966;28;20460;-78
2022/10/21 17:01:59;;;;;;;22.30;9.60;;;;;;;;;;10334296;28;20037;-74
2022/10/21 17:07:00;;;;;;;20.98;10.75;;;;;;;;;;10311132;28;20081;-77
2022/10/21 17:12:00;;;;;;;20.38;10.27;;;;;;;;;;10318199;28;20033;-80
2022/10/21 17:17:01;;;;;;;19.95;9.48;;;;;;;;;;10306160;28;20023;-73
2022/10/21 17:22:01;;;;;;;22.15;10.88;;;;;;;;;;10308360;28;20112;-73
2022/10/21 17:27:01;;;;;;;20.17;9.30;;;;;;;;;;10325495;28;20022;-75
2022/10/21 17:32:02;;;;;;;15.68;8.73;;;;;;;;;;10318121;28;20022;-79
2022/10/21 17:37:02;;;;;;;16.50;9.85;;;;;;;;;;10311348;28;20047;-77
2022/10/21 17:42:03;;;;;;;20.55;10.15;;;;;;;;;;10315339;28;20096;-73
2022/10/21 17:47:05;;;;;;;21.63;10.00;;;;;;;;;;10295644;28;20058;-81
2022/10/21 17:52:05;;;;;;;17.13;10.05;;;;;;;;;;10303738;28;20026;-77
2022/10/21 17:57:05;;;;;;;21.13;11.10;;;;;;;;;;10310358;28;20026;-81
2022/10/21 18:02:07;;;;;;;17.80;10.97;;;;;;;;;;10306995;28;20022;-77
2022/10/21 18:07:08;;;;;;;20.42;10.15;;;;;;;;;;10309540;28;20014;-75
2022/10/21 18:12:09;;;;;;;18.63;8.88;;;;;;;;;;10301597;28;20022;-83
2022/10/21 18:17:10;;;;;;;26.80;11.15;;;;;;;;;;10298572;28;20042;-80
2022/10/21 18:22:10;;;;;;;20.75;11.35;;;;;;;;;;10318423;28;20049;-77
2022/10/21 18:27:11;;;;;;;28.38;13.38;;;;;;;;;;10320071;28;20507;-81
2022/10/21 18:32:11;;;;;;;24.30;11.10;;;;;;;;;;10307096;28;20038;-79
2022/10/21 18:37:11;;;;;;;21.42;10.73;;;;;;;;;;10302829;28;20085;-75
2022/10/21 18:42:11;;;;;;;22.65;11.43;;;;;;;;;;10309329;28;20026;-74
2022/10/21 18:47:12;;;;;;;25.92;11.35;;;;;;;;;;10308666;28;20224;-74
2022/10/21 18:52:12;;;;;;;21.83;12.20;;;;;;;;;;10332680;28;20038;-73
2022/10/21 18:57:12;;;;;;;19.95;11.15;;;;;;;;;;10306658;28;20035;-78
2022/10/21 19:02:19;;;;;;;23.83;11.00;;;;;;;;;;10326070;28;20533;-74
2022/10/21 19:07:19;;;;;;;22.40;10.13;;;;;;;;;;10316707;28;20033;-77
2022/10/21 19:12:19;;;;;;;20.15;10.90;;;;;;;;;;10304971;28;20026;-77
2022/10/21 19:17:19;;;;;;;26.23;10.85;;;;;;;;;;10312817;28;20045;-74
2022/10/21 19:22:22;;;;;;;22.48;11.68;;;;;;;;;;10303500;28;20117;-80
2022/10/21 19:27:22;;;;;;;18.50;9.90;;;;;;;;;;10319084;28;20029;-72
2022/10/21 19:32:23;;;;;;;21.27;11.05;;;;;;;;;;10313862;28;20548;-76
2022/10/21 19:37:23;;;;;;;21.35;11.63;;;;;;;;;;10311866;28;20058;-73
2022/10/21 19:42:23;;;;;;;27.92;14.18;;;;;;;;;;10305952;28;20042;-76
2022/10/21 19:47:24;;;;;;;23.57;12.23;;;;;;;;;;10315488;28;20030;-73
2022/10/21 19:52:25;;;;;;;23.20;11.93;;;;;;;;;;10327544;28;20377;-72
2022/10/21 19:57:26;;;;;;;26.42;12.07;;;;;;;;;;10337595;28;20090;-73
2022/10/21 20:02:27;;;;;;;24.08;12.07;;;;;;;;;;10317172;28;20097;-72
2022/10/21 20:07:27;;;;;;;23.83;13.15;;;;;;;;;;10313502;28;20567;-73
2022/10/21 20:12:27;;;;;;;23.95;11.52;;;;;;;;;;10319892;28;20540;-77
2022/10/21 20:17:27;;;;;;;19.70;11.88;;;;;;;;;;10288422;28;20505;-72
2022/10/21 20:22:30;;;;;;;20.80;11.18;;;;;;;;;;10305755;28;20034;-76
2022/10/21 20:27:30;;;;;;;20.70;11.70;;;;;;;;;;10307616;28;20026;-77
2022/10/21 20:32:30;;;;;;;24.92;12.40;;;;;;;;;;10298482;28;20504;-75
2022/10/21 20:37:30;;;;;;;22.08;12.68;;;;;;;;;;10311148;28;20140;-78
2022/10/21 20:42:31;;;;;;;27.83;13.68;;;;;;;;;;10313184;28;20026;-75
2022/10/21 20:47:32;;;;;;;26.85;13.77;;;;;;;;;;10304723;28;20022;-76
2022/10/21 20:52:32;;;;;;;26.63;13.83;;;;;;;;;;10304266;28;20481;-72
2022/10/21 20:57:32;;;;;;;28.25;13.90;;;;;;;;;;10314176;28;20787;-77
2022/10/21 21:02:32;;;;;;;24.97;12.67;;;;;;;;;;10298460;28;20117;-72
2022/10/21 21:07:33;;;;;;;32.95;14.90;;;;;;;;;;10309094;28;20123;-77
2022/10/21 21:12:33;;;;;;;25.13;15.25;;;;;;;;;;10314083;28;20026;-74
2022/10/21 21:17:33;;;;;;;33.60;14.50;;;;;;;;;;10289314;28;20109;-78
2022/10/21 21:22:35;;;;;;;24.65;15.00;;;;;;;;;;10287222;28;20026;-74
2022/10/21 21:27:35;;;;;;;31.00;15.27;;;;;;;;;;10305681;28;20039;-79
2022/10/21 21:32:35;;;;;;;32.85;14.60;;;;;;;;;;10288162;28;20037;-72
2022/10/21 21:37:36;;;;;;;35.70;16.15;;;;;;;;;;10289400;28;20615;-77
2022/10/21 21:42:36;;;;;;;33.17;16.90;;;;;;;;;;10287922;28;20083;-74
2022/10/21 21:47:36;;;;;;;33.35;19.63;;;;;;;;;;10290168;28;20109;-71
2022/10/21 21:52:36;;;;;;;47.97;20.38;;;;;;;;;;10294785;28;20650;-78
2022/10/21 21:57:37;;;;;;;37.80;18.53;;;;;;;;;;10289122;28;20102;-80
2022/10/21 22:02:37;;;;;;;44.85;21.73;;;;;;;;;;10285349;28;20137;-77
2022/10/21 22:07:38;;;;;;;42.15;21.15;;;;;;;;;;10282079;28;20031;-74
2022/10/21 22:12:39;;;;;;;45.10;21.97;;;;;;;;;;10249229;28;20023;-75
2022/10/21 22:17:40;;;;;;;40.60;21.08;;;;;;;;;;10269450;28;20274;-76
2022/10/21 22:22:40;;;;;;;46.20;21.73;;;;;;;;;;10276627;28;20019;-76
2022/10/21 22:27:41;;;;;;;50.30;19.58;;;;;;;;;;10265074;28;20035;-74
2022/10/21 22:32:41;;;;;;;41.67;20.02;;;;;;;;;;10263774;28;20398;-73
2022/10/21 22:37:41;;;;;;;43.17;20.10;;;;;;;;;;10247168;28;20043;-78
2022/10/21 22:42:42;;;;;;;41.55;19.20;;;;;;;;;;10263505;28;20038;-78
2022/10/21 22:47:42;;;;;;;46.28;17.85;;;;;;;;;;10263239;28;20118;-74
2022/10/21 22:52:42;;;;;;;48.08;18.98;;;;;;;;;;10246626;28;20035;-75
2022/10/21 22:57:42;;;;;;;41.13;18.77;;;;;;;;;;10246532;28;20023;-77
2022/10/21 23:02:43;;;;;;;39.90;20.20;;;;;;;;;;10262500;28;20111;-77
2022/10/21 23:07:43;;;;;;;37.03;18.45;;;;;;;;;;10261716;28;20034;-77
2022/10/21 23:12:43;;;;;;;35.08;17.35;;;;;;;;;;10261752;28;20045;-76
2022/10/21 23:17:43;;;;;;;38.30;21.20;;;;;;;;;;10279826;28;20082;-78
2022/10/21 23:22:43;;;;;;;38.40;19.42;;;;;;;;;;10261892;28;20489;-73
2022/10/21 23:27:44;;;;;;;36.00;18.20;;;;;;;;;;10260498;28;20482;-78
2022/10/21 23:32:45;;;;;;;41.00;18.08;;;;;;;;;;10245233;28;20037;-73
2022/10/21 23:37:45;;;;;;;35.58;18.45;;;;;;;;;;10246405;28;20134;-75
2022/10/21 23:42:45;;;;;;;37.03;17.88;;;;;;;;;;10261007;28;20049;-74
2022/10/21 23:47:46;;;;;;;42.10;19.63;;;;;;;;;;10267827;28;20486;-74
2022/10/21 23:52:46;;;;;;;36.60;19.00;;;;;;;;;;10260681;28;20033;-74
2022/10/21 23:57:46;;;;;;;36.85;17.75;;;;;;;;;;10259692;28;20023;-77
